Cape Express — HO5337 — position and weather

sailwx.info

Track history (hours):
 
Tides and Currents Weather Stations Pressure Air Temp Water Temp Dewpoint Dewpoint Depression Visibility Wind Speed Wind Dir Waves Ship Positions

Cape Express

Last reported at 2017-Nov-17 17:03 UTC. Time now 2017-Nov-18 08:34 UTC.
Position N 25°45' W 079°35'.

Length 29 m; draft 2.1 m.

Type: Cargo ship. MMSI: 370269000.

Date/timePositionNaut miles runAvg speedWind from/ knotsBaromVisibWave heightAir tempDewpointWater temp
2017-Nov-17 17:03N 25°45' W 079°35'2 7.8
2017-Nov-17 16:44N 25°47' W 079°37'2 7.5
2017-Nov-17 16:30N 25°48' W 079°38'4 7.3
2017-Nov-17 15:59N 25°50' W 079°42'4 7.5
2017-Nov-17 15:30N 25°52' W 079°45'4 7.5
2017-Nov-17 15:00N 25°54' W 079°48'4 7.4
2017-Nov-17 14:30N 25°57' W 079°52'4 7.5
2017-Nov-17 14:00N 25°59' W 079°55'4 7.4
2017-Nov-17 13:30N 26°01' W 079°58'4 7.5
2017-Nov-17 13:00N 26°03' W 080°01'4 8.8
2017-Nov-17 12:30N 26°06' W 080°06'3 5.5
2017-Nov-17 12:00N 26°04' W 080°08'0 0.2
2017-Nov-17 11:30N 26°04' W 080°08'0 0.0
2017-Nov-17 11:00N 26°04' W 080°08'0 0.0
2017-Nov-17 10:30N 26°04' W 080°08'0 0.0
2017-Nov-17 10:00N 26°04' W 080°08'0 0.0
2017-Nov-17 09:30N 26°04' W 080°08'0 0.0
2017-Nov-17 09:00N 26°04' W 080°08'0 0.0
2017-Nov-17 08:30N 26°04' W 080°08'0 0.0
2017-Nov-17 08:00N 26°04' W 080°08'0 0.0
2017-Nov-17 07:30N 26°04' W 080°08'0 0.0
2017-Nov-17 07:00N 26°04' W 080°08'0 0.0
2017-Nov-17 06:30N 26°04' W 080°08'0 0.0
2017-Nov-17 06:00N 26°04' W 080°08'0 0.0
2017-Nov-17 05:30N 26°04' W 080°08'0 0.0
2017-Nov-17 05:00N 26°04' W 080°08'0 0.0
2017-Nov-17 04:30N 26°04' W 080°08'1 1.5
2017-Nov-17 04:00N 26°04' W 080°07'3 6.6
2017-Nov-17 03:30N 26°05' W 080°04'5 9.4
2017-Nov-17 03:00N 26°05' W 079°59'5 9.1
2017-Nov-17 02:30N 26°05' W 079°54'4 8.8
2017-Nov-17 02:00N 26°05' W 079°49'5 9.0
2017-Nov-17 01:30N 26°06' W 079°44'4 9.1
2017-Nov-17 01:00N 26°05' W 079°39'  
2017-Nov-14 06:30N 25°58' W 079°38'4 7.4
2017-Nov-14 06:00N 25°59' W 079°42'4 7.3
2017-Nov-14 05:30N 26°00' W 079°46'4 7.2
2017-Nov-14 05:00N 26°01' W 079°50'4 7.3
2017-Nov-14 04:30N 26°02' W 079°53'4 7.3
2017-Nov-14 04:00N 26°03' W 079°57'4 7.4
2017-Nov-14 03:30N 26°05' W 080°01'4 7.8
2017-Nov-14 03:00N 26°06' W 080°05'3 5.9
2017-Nov-14 02:30N 26°04' W 080°08'0 0.1
2017-Nov-14 02:00N 26°04' W 080°08'0 0.0
2017-Nov-14 01:30N 26°04' W 080°08'0 0.0
2017-Nov-14 01:00N 26°04' W 080°08'0 0.0
2017-Nov-14 00:30N 26°04' W 080°08'0 0.0
2017-Nov-14 00:00N 26°04' W 080°08'0 0.0
2017-Nov-13 23:30N 26°04' W 080°08'0 0.0
2017-Nov-13 23:00N 26°04' W 080°08'0 0.0
2017-Nov-13 22:30N 26°04' W 080°08'0 0.0
2017-Nov-13 22:00N 26°04' W 080°08'  
2017-Nov-09 05:30N 22°30' W 073°35'4 7.6
2017-Nov-09 05:00N 22°32' W 073°38'4 7.6
2017-Nov-09 04:29N 22°36' W 073°40'4 8.0
2017-Nov-09 04:00N 22°39' W 073°43'4 7.6
2017-Nov-09 03:30N 22°42' W 073°45'4 7.1
2017-Nov-09 02:59N 22°45' W 073°47'  
Track history (hours):
 
Tides and Currents Weather Stations Pressure Air Temp Water Temp Dewpoint Dewpoint Depression Visibility Wind Speed Wind Dir Waves Ship Positions

Cape Express

Last reported at 2017-Nov-17 17:03 UTC. Time now 2017-Nov-18 08:34 UTC.
Position N 25°45' W 079°35'.

Length 29 m; draft 2.1 m.

Type: Cargo ship. MMSI: 370269000.

Date/timePositionNaut miles runAvg speedWind from/ knotsBaromVisibWave heightAir tempDewpointWater temp
2017-Nov-17 17:03N 25°45' W 079°35'2 7.8
2017-Nov-17 16:44N 25°47' W 079°37'2 7.5
2017-Nov-17 16:30N 25°48' W 079°38'4 7.3
2017-Nov-17 15:59N 25°50' W 079°42'4 7.5
2017-Nov-17 15:30N 25°52' W 079°45'4 7.5
2017-Nov-17 15:00N 25°54' W 079°48'4 7.4
2017-Nov-17 14:30N 25°57' W 079°52'4 7.5
2017-Nov-17 14:00N 25°59' W 079°55'4 7.4
2017-Nov-17 13:30N 26°01' W 079°58'4 7.5
2017-Nov-17 13:00N 26°03' W 080°01'4 8.8
2017-Nov-17 12:30N 26°06' W 080°06'3 5.5
2017-Nov-17 12:00N 26°04' W 080°08'0 0.2
2017-Nov-17 11:30N 26°04' W 080°08'0 0.0
2017-Nov-17 11:00N 26°04' W 080°08'0 0.0
2017-Nov-17 10:30N 26°04' W 080°08'0 0.0
2017-Nov-17 10:00N 26°04' W 080°08'0 0.0
2017-Nov-17 09:30N 26°04' W 080°08'0 0.0
2017-Nov-17 09:00N 26°04' W 080°08'0 0.0
2017-Nov-17 08:30N 26°04' W 080°08'0 0.0
2017-Nov-17 08:00N 26°04' W 080°08'0 0.0
2017-Nov-17 07:30N 26°04' W 080°08'0 0.0
2017-Nov-17 07:00N 26°04' W 080°08'0 0.0
2017-Nov-17 06:30N 26°04' W 080°08'0 0.0
2017-Nov-17 06:00N 26°04' W 080°08'0 0.0
2017-Nov-17 05:30N 26°04' W 080°08'0 0.0
2017-Nov-17 05:00N 26°04' W 080°08'0 0.0
2017-Nov-17 04:30N 26°04' W 080°08'1 1.5
2017-Nov-17 04:00N 26°04' W 080°07'3 6.6
2017-Nov-17 03:30N 26°05' W 080°04'5 9.4
2017-Nov-17 03:00N 26°05' W 079°59'5 9.1
2017-Nov-17 02:30N 26°05' W 079°54'4 8.8
2017-Nov-17 02:00N 26°05' W 079°49'5 9.0
2017-Nov-17 01:30N 26°06' W 079°44'4 9.1
2017-Nov-17 01:00N 26°05' W 079°39'  
2017-Nov-14 06:30N 25°58' W 079°38'4 7.4
2017-Nov-14 06:00N 25°59' W 079°42'4 7.3
2017-Nov-14 05:30N 26°00' W 079°46'4 7.2
2017-Nov-14 05:00N 26°01' W 079°50'4 7.3
2017-Nov-14 04:30N 26°02' W 079°53'4 7.3
2017-Nov-14 04:00N 26°03' W 079°57'4 7.4
2017-Nov-14 03:30N 26°05' W 080°01'4 7.8
2017-Nov-14 03:00N 26°06' W 080°05'3 5.9
2017-Nov-14 02:30N 26°04' W 080°08'0 0.1
2017-Nov-14 02:00N 26°04' W 080°08'0 0.0
2017-Nov-14 01:30N 26°04' W 080°08'0 0.0
2017-Nov-14 01:00N 26°04' W 080°08'0 0.0
2017-Nov-14 00:30N 26°04' W 080°08'0 0.0
2017-Nov-14 00:00N 26°04' W 080°08'0 0.0
2017-Nov-13 23:30N 26°04' W 080°08'0 0.0
2017-Nov-13 23:00N 26°04' W 080°08'0 0.0
2017-Nov-13 22:30N 26°04' W 080°08'0 0.0
2017-Nov-13 22:00N 26°04' W 080°08'  
2017-Nov-09 05:30N 22°30' W 073°35'4 7.6
2017-Nov-09 05:00N 22°32' W 073°38'4 7.6
2017-Nov-09 04:29N 22°36' W 073°40'4 8.0
2017-Nov-09 04:00N 22°39' W 073°43'4 7.6
2017-Nov-09 03:30N 22°42' W 073°45'4 7.1
2017-Nov-09 02:59N 22°45' W 073°47'  

Dump ship's entire track history